A4093 KDLF-KDLF
Flight info
| Callsign | A4093 |
|---|---|
| Flight time | 0h 5m |
| Altitude | 2500 |
| Route | VFR LEFT TRAFFIC |
| Aircraft | C172/L-VGD/C |
Departure
| Time | 2026-05-08 02:27 |
|---|---|
| Airport | Laughlin Air Force Base (KDLF) |
Arrival
| Time | 2026-05-08 02:33 |
|---|---|
| Airport | Laughlin Air Force Base (KDLF) |
| Time | Latitude | Longitude | Altitude | Speed | Heading |
|---|---|---|---|---|---|
| 2026-05-08 02:14 | 29.35841 | -100.78337 | 1084 ft | 0 kts | 315° |
| 2026-05-08 02:19 | 29.35842 | -100.78338 | 1084 ft | 1 kts | 315° |
| 2026-05-08 02:19 | 29.35867 | -100.78336 | 1084 ft | 7 kts | 50° |
| 2026-05-08 02:20 | 29.35875 | -100.78277 | 1084 ft | 12 kts | 140° |
| 2026-05-08 02:20 | 29.35826 | -100.78225 | 1084 ft | 17 kts | 135° |
| 2026-05-08 02:20 | 29.35761 | -100.78150 | 1085 ft | 7 kts | 134° |
| 2026-05-08 02:20 | 29.35725 | -100.78109 | 1085 ft | 9 kts | 135° |
| 2026-05-08 02:21 | 29.35671 | -100.78051 | 1086 ft | 12 kts | 135° |
| 2026-05-08 02:21 | 29.35602 | -100.77973 | 1086 ft | 15 kts | 138° |
| 2026-05-08 02:21 | 29.35539 | -100.77915 | 1087 ft | 5 kts | 137° |
| 2026-05-08 02:21 | 29.35538 | -100.77912 | 1087 ft | 0 kts | 107° |
| 2026-05-08 02:23 | 29.35512 | -100.77896 | 1087 ft | 9 kts | 151° |
| 2026-05-08 02:23 | 29.35442 | -100.77818 | 1088 ft | 18 kts | 135° |
| 2026-05-08 02:23 | 29.35334 | -100.77695 | 1089 ft | 25 kts | 135° |
| 2026-05-08 02:24 | 29.35197 | -100.77541 | 1090 ft | 30 kts | 135° |
| 2026-05-08 02:24 | 29.35034 | -100.77358 | 1090 ft | 35 kts | 136° |
| 2026-05-08 02:24 | 29.34923 | -100.77172 | 1089 ft | 25 kts | 103° |
| 2026-05-08 02:24 | 29.34892 | -100.76990 | 1090 ft | 22 kts | 99° |
| 2026-05-08 02:25 | 29.34875 | -100.76856 | 1090 ft | 13 kts | 69° |
| 2026-05-08 02:25 | 29.34924 | -100.76847 | 1090 ft | 0 kts | 346° |
| 2026-05-08 02:25 | 29.34925 | -100.76847 | 1090 ft | 1 kts | 346° |
| 2026-05-08 02:26 | 29.34969 | -100.76854 | 1090 ft | 11 kts | 7° |
| 2026-05-08 02:26 | 29.35035 | -100.76867 | 1089 ft | 15 kts | 306° |
| 2026-05-08 02:26 | 29.35147 | -100.77000 | 1087 ft | 40 kts | 315° |
| 2026-05-08 02:26 | 29.35449 | -100.77334 | 1092 ft | 77 kts | 316° |
| 2026-05-08 02:27 | 29.35853 | -100.77813 | 1200 ft | 88 kts | 314° |
| 2026-05-08 02:27 | 29.36298 | -100.78326 | 1347 ft | 93 kts | 317° |
| 2026-05-08 02:27 | 29.36749 | -100.78850 | 1544 ft | 91 kts | 316° |
| 2026-05-08 02:27 | 29.37212 | -100.79378 | 1692 ft | 95 kts | 316° |
| 2026-05-08 02:28 | 29.37695 | -100.79930 | 1841 ft | 99 kts | 313° |
| 2026-05-08 02:28 | 29.37845 | -100.80631 | 2013 ft | 88 kts | 249° |
| 2026-05-08 02:28 | 29.37626 | -100.81304 | 1882 ft | 98 kts | 237° |
| 2026-05-08 02:28 | 29.37134 | -100.81887 | 1921 ft | 108 kts | 222° |
| 2026-05-08 02:29 | 29.36573 | -100.82448 | 2064 ft | 106 kts | 218° |
| 2026-05-08 02:29 | 29.35943 | -100.82930 | 2089 ft | 113 kts | 194° |
| 2026-05-08 02:29 | 29.35215 | -100.82727 | 2054 ft | 115 kts | 140° |
| 2026-05-08 02:29 | 29.34656 | -100.82059 | 2062 ft | 116 kts | 131° |
| 2026-05-08 02:30 | 29.34113 | -100.81355 | 2019 ft | 120 kts | 129° |
| 2026-05-08 02:30 | 29.33612 | -100.80595 | 2022 ft | 118 kts | 125° |
| 2026-05-08 02:30 | 29.33131 | -100.79846 | 2011 ft | 116 kts | 125° |
| 2026-05-08 02:30 | 29.32651 | -100.79086 | 1910 ft | 119 kts | 126° |
| 2026-05-08 02:31 | 29.32191 | -100.78348 | 1801 ft | 110 kts | 124° |
| 2026-05-08 02:31 | 29.31890 | -100.77571 | 1667 ft | 107 kts | 92° |
| 2026-05-08 02:31 | 29.32228 | -100.76873 | 1557 ft | 103 kts | 39° |
| 2026-05-08 02:31 | 29.32786 | -100.76427 | 1460 ft | 92 kts | 32° |
| 2026-05-08 02:32 | 29.33324 | -100.76065 | 1357 ft | 86 kts | 29° |
| 2026-05-08 02:32 | 29.33854 | -100.75796 | 1252 ft | 82 kts | 7° |
| 2026-05-08 02:32 | 29.34277 | -100.76122 | 1169 ft | 80 kts | 303° |
| 2026-05-08 02:32 | 29.34626 | -100.76619 | 1144 ft | 80 kts | 316° |
| 2026-05-08 02:33 | 29.35016 | -100.77074 | 1130 ft | 81 kts | 319° |
| 2026-05-08 02:33 | 29.35414 | -100.77518 | 1092 ft | 73 kts | 315° |
| 2026-05-08 02:33 | 29.35711 | -100.77846 | 1085 ft | 44 kts | 314° |
| 2026-05-08 02:33 | 29.35805 | -100.78005 | 1084 ft | 7 kts | 224° |
| 2026-05-08 02:34 | 29.35801 | -100.78008 | 1084 ft | 1 kts | 224° |
| 2026-05-08 02:34 | 29.35770 | -100.78045 | 1085 ft | 12 kts | 227° |
| 2026-05-08 02:34 | 29.35703 | -100.78087 | 1086 ft | 13 kts | 141° |
| 2026-05-08 02:34 | 29.35615 | -100.77985 | 1086 ft | 23 kts | 135° |
| 2026-05-08 02:35 | 29.35472 | -100.77855 | 1088 ft | 30 kts | 136° |
| 2026-05-08 02:35 | 29.35343 | -100.77706 | 1089 ft | 26 kts | 137° |
| 2026-05-08 02:35 | 29.35263 | -100.77572 | 1090 ft | 15 kts | 74° |
| 2026-05-08 02:35 | 29.35290 | -100.77476 | 1091 ft | 10 kts | 73° |
| 2026-05-08 02:36 | 29.35293 | -100.77466 | 1091 ft | 0 kts | 73° |
| 2026-05-08 02:36 | 29.35325 | -100.77433 | 1089 ft | 14 kts | 4° |
| 2026-05-08 02:36 | 29.35439 | -100.77545 | 1090 ft | 33 kts | 315° |
| 2026-05-08 02:36 | 29.35717 | -100.77854 | 1086 ft | 74 kts | 315° |
| 2026-05-08 02:37 | 29.36104 | -100.78317 | 1186 ft | 86 kts | 317° |
| 2026-05-08 02:37 | 29.36547 | -100.78811 | 1342 ft | 90 kts | 317° |
| 2026-05-08 02:37 | 29.36980 | -100.79361 | 1473 ft | 96 kts | 311° |
| 2026-05-08 02:37 | 29.37374 | -100.79959 | 1602 ft | 93 kts | 304° |
| 2026-05-08 02:38 | 29.37707 | -100.80593 | 1685 ft | 93 kts | 300° |
| 2026-05-08 02:38 | 29.37929 | -100.81284 | 1766 ft | 93 kts | 268° |
| 2026-05-08 02:38 | 29.37648 | -100.81947 | 1804 ft | 98 kts | 225° |
| 2026-05-08 02:38 | 29.37149 | -100.82514 | 1850 ft | 105 kts | 224° |
| 2026-05-08 02:39 | 29.36625 | -100.83059 | 1966 ft | 101 kts | 216° |
| 2026-05-08 02:39 | 29.36056 | -100.83515 | 2056 ft | 98 kts | 204° |
| 2026-05-08 02:39 | 29.35436 | -100.83348 | 2043 ft | 100 kts | 136° |
| 2026-05-08 02:39 | 29.34942 | -100.82761 | 2041 ft | 103 kts | 131° |
| 2026-05-08 02:40 | 29.34490 | -100.82138 | 2015 ft | 100 kts | 126° |
| 2026-05-08 02:40 | 29.34082 | -100.81498 | 2011 ft | 98 kts | 124° |
| 2026-05-08 02:40 | 29.33689 | -100.80879 | 2017 ft | 97 kts | 128° |
| 2026-05-08 02:40 | 29.33284 | -100.80274 | 2037 ft | 94 kts | 128° |
| 2026-05-08 02:41 | 29.32868 | -100.79680 | 1989 ft | 95 kts | 129° |
| 2026-05-08 02:41 | 29.32465 | -100.79088 | 1982 ft | 94 kts | 129° |
| 2026-05-08 02:41 | 29.32061 | -100.78481 | 1910 ft | 92 kts | 130° |
| 2026-05-08 02:41 | 29.31663 | -100.77950 | 1852 ft | 85 kts | 133° |
| 2026-05-08 02:42 | 29.31316 | -100.77412 | 1767 ft | 83 kts | 102° |
| 2026-05-08 02:42 | 29.31589 | -100.76859 | 1681 ft | 86 kts | 43° |
| 2026-05-08 02:42 | 29.32030 | -100.76414 | 1634 ft | 82 kts | 43° |
| 2026-05-08 02:42 | 29.32470 | -100.76021 | 1553 ft | 81 kts | 37° |
| 2026-05-08 02:43 | 29.32936 | -100.75669 | 1473 ft | 81 kts | 33° |
| 2026-05-08 02:43 | 29.33449 | -100.75467 | 1401 ft | 79 kts | 345° |
| 2026-05-08 02:43 | 29.33880 | -100.75783 | 1315 ft | 71 kts | 317° |
| 2026-05-08 02:43 | 29.34218 | -100.76183 | 1245 ft | 70 kts | 315° |
| 2026-05-08 02:44 | 29.34563 | -100.76577 | 1205 ft | 72 kts | 316° |
| 2026-05-08 02:44 | 29.34933 | -100.76969 | 1171 ft | 73 kts | 316° |
| 2026-05-08 02:44 | 29.35289 | -100.77377 | 1131 ft | 71 kts | 315° |
| 2026-05-08 02:44 | 29.35616 | -100.77762 | 1087 ft | 65 kts | 313° |
| 2026-05-08 02:45 | 29.35853 | -100.78022 | 1084 ft | 32 kts | 317° |
| 2026-05-08 02:45 | 29.36003 | -100.78178 | 1083 ft | 26 kts | 316° |
| 2026-05-08 02:45 | 29.36121 | -100.78308 | 1083 ft | 21 kts | 316° |
| 2026-05-08 02:45 | 29.36219 | -100.78419 | 1083 ft | 18 kts | 314° |
| 2026-05-08 02:46 | 29.36266 | -100.78507 | 1082 ft | 9 kts | 242° |
| 2026-05-08 02:46 | 29.36228 | -100.78555 | 1081 ft | 7 kts | 226° |
| 2026-05-08 02:46 | 29.36188 | -100.78600 | 1081 ft | 11 kts | 215° |
| 2026-05-08 02:46 | 29.36128 | -100.78564 | 1082 ft | 13 kts | 134° |
| 2026-05-08 02:47 | 29.36044 | -100.78472 | 1083 ft | 21 kts | 134° |
| 2026-05-08 02:47 | 29.35924 | -100.78337 | 1084 ft | 24 kts | 136° |
| 2026-05-08 02:47 | 29.35825 | -100.78226 | 1084 ft | 21 kts | 134° |
| 2026-05-08 02:47 | 29.35710 | -100.78092 | 1085 ft | 26 kts | 130° |
| 2026-05-08 02:48 | 29.35568 | -100.77937 | 1087 ft | 27 kts | 140° |
| 2026-05-08 02:48 | 29.35434 | -100.77810 | 1088 ft | 25 kts | 135° |
| 2026-05-08 02:48 | 29.35440 | -100.77724 | 1089 ft | 14 kts | 47° |
| 2026-05-08 02:48 | 29.35497 | -100.77654 | 1089 ft | 11 kts | 47° |
| 2026-05-08 02:49 | 29.35575 | -100.77698 | 1088 ft | 25 kts | 316° |
| 2026-05-08 02:49 | 29.35818 | -100.77967 | 1085 ft | 68 kts | 316° |
| 2026-05-08 02:49 | 29.36188 | -100.78402 | 1170 ft | 82 kts | 319° |
| 2026-05-08 02:49 | 29.36630 | -100.78870 | 1290 ft | 90 kts | 319° |
| 2026-05-08 02:50 | 29.37123 | -100.79369 | 1411 ft | 98 kts | 321° |
| 2026-05-08 02:50 | 29.37615 | -100.79890 | 1602 ft | 97 kts | 316° |
| 2026-05-08 02:50 | 29.38093 | -100.80461 | 1725 ft | 101 kts | 313° |
| 2026-05-08 02:50 | 29.38571 | -100.81078 | 1834 ft | 105 kts | 312° |
| 2026-05-08 02:51 | 29.38770 | -100.81834 | 1938 ft | 100 kts | 252° |
| 2026-05-08 02:51 | 29.38374 | -100.82453 | 1985 ft | 96 kts | 221° |
| 2026-05-08 02:51 | 29.37888 | -100.82978 | 2031 ft | 96 kts | 219° |
| 2026-05-08 02:51 | 29.37372 | -100.83495 | 2034 ft | 101 kts | 219° |
| 2026-05-08 02:52 | 29.36814 | -100.83981 | 2082 ft | 99 kts | 213° |
| 2026-05-08 02:52 | 29.36244 | -100.84387 | 2115 ft | 95 kts | 191° |
| 2026-05-08 02:52 | 29.35658 | -100.84131 | 2085 ft | 97 kts | 137° |
| 2026-05-08 02:52 | 29.35178 | -100.83583 | 2085 ft | 98 kts | 133° |
| 2026-05-08 02:53 | 29.34739 | -100.82999 | 2137 ft | 96 kts | 129° |
| 2026-05-08 02:53 | 29.34325 | -100.82389 | 2169 ft | 96 kts | 128° |
| 2026-05-08 02:53 | 29.33889 | -100.81790 | 2152 ft | 99 kts | 133° |
| 2026-05-08 02:53 | 29.33421 | -100.81211 | 2161 ft | 99 kts | 133° |
| 2026-05-08 02:54 | 29.32972 | -100.80606 | 2162 ft | 101 kts | 129° |
| 2026-05-08 02:54 | 29.32519 | -100.79994 | 2190 ft | 100 kts | 135° |
| 2026-05-08 02:54 | 29.32035 | -100.79436 | 2194 ft | 100 kts | 136° |
| 2026-05-08 02:54 | 29.31541 | -100.78870 | 2202 ft | 101 kts | 137° |
| 2026-05-08 02:55 | 29.31047 | -100.78302 | 2205 ft | 101 kts | 132° |
| 2026-05-08 02:55 | 29.30573 | -100.76892 | 2188 ft | 106 kts | 65° |
| 2026-05-08 02:55 | 29.31055 | -100.76240 | 2137 ft | 105 kts | 47° |
| 2026-05-08 02:56 | 29.31563 | -100.75668 | 1957 ft | 100 kts | 47° |
| 2026-05-08 02:56 | 29.32037 | -100.75171 | 1765 ft | 87 kts | 42° |
| 2026-05-08 02:56 | 29.32522 | -100.74799 | 1567 ft | 83 kts | 14° |
| 2026-05-08 02:56 | 29.33062 | -100.74946 | 1381 ft | 85 kts | 326° |
| 2026-05-08 02:57 | 29.33511 | -100.75382 | 1279 ft | 85 kts | 315° |
| 2026-05-08 02:57 | 29.33939 | -100.75852 | 1247 ft | 84 kts | 316° |
| 2026-05-08 02:57 | 29.34346 | -100.76319 | 1232 ft | 81 kts | 315° |
| 2026-05-08 02:57 | 29.34725 | -100.76776 | 1231 ft | 75 kts | 315° |
| 2026-05-08 02:58 | 29.35091 | -100.77173 | 1153 ft | 71 kts | 315° |
| 2026-05-08 02:58 | 29.35431 | -100.77552 | 1100 ft | 65 kts | 315° |
| 2026-05-08 02:58 | 29.35739 | -100.77885 | 1085 ft | 56 kts | 320° |
| 2026-05-08 02:58 | 29.36001 | -100.78169 | 1083 ft | 56 kts | 316° |
| 2026-05-08 02:59 | 29.36255 | -100.78459 | 1082 ft | 35 kts | 313° |
| 2026-05-08 02:59 | 29.36427 | -100.78649 | 1079 ft | 31 kts | 315° |
| 2026-05-08 02:59 | 29.36544 | -100.78783 | 1076 ft | 19 kts | 315° |
| 2026-05-08 02:59 | 29.36558 | -100.78872 | 1076 ft | 12 kts | 217° |
| 2026-05-08 03:00 | 29.36489 | -100.78911 | 1078 ft | 14 kts | 151° |
| 2026-05-08 03:00 | 29.36402 | -100.78812 | 1079 ft | 22 kts | 136° |
| 2026-05-08 03:00 | 29.36275 | -100.78730 | 1080 ft | 17 kts | 130° |
| 2026-05-08 03:00 | 29.36255 | -100.78705 | 1080 ft | 0 kts | 135° |
| 2026-05-08 03:01 | 29.36243 | -100.78692 | 1081 ft | 8 kts | 136° |
| 2026-05-08 03:01 | 29.36204 | -100.78656 | 1081 ft | 6 kts | 165° |
| 2026-05-08 03:01 | 29.36189 | -100.78669 | 1082 ft | 5 kts | 235° |
| 2026-05-08 03:01 | 29.36158 | -100.78685 | 1081 ft | 6 kts | 133° |
| 2026-05-08 03:02 | 29.36155 | -100.78682 | 1081 ft | 0 kts | 134° |